Time;durP1;ratioP1;P1;durP2;ratioP2;P2;SDS_P1;SDS_P2;PMS_P1;PMS_P2;Temp;Humidity;BMP_temperature;BMP_pressure;BME280_temperature;BME280_humidity;BME280_pressure;Samples;Min_cycle;Max_cycle;Signal;HPM_P1;HPM_P2
2021/01/07 00:01:41;;;;;;;47.93;25.23;;;;;;;2.44;100.00;99977.58;1760683;79;21127;-56
2021/01/07 00:04:09;;;;;;;47.10;24.25;;;;;;;2.43;100.00;99983.80;1759312;79;21390;-55
2021/01/07 00:09:08;;;;;;;50.98;25.17;;;;;;;2.40;100.00;99973.22;1747545;78;22832;-52
2021/01/07 00:11:42;;;;;;;51.65;25.37;;;;;;;2.32;100.00;99987.06;1722293;82;21206;-55
2021/01/07 00:14:11;;;;;;;52.38;27.15;;;;;;;2.28;100.00;99993.31;1725764;82;21389;-54
2021/01/07 00:16:39;;;;;;;49.65;26.55;;;;;;;2.24;100.00;99998.27;1704756;82;21005;-54
2021/01/07 00:19:07;;;;;;;51.35;26.15;;;;;;;2.21;100.00;99999.17;1723662;82;21510;-54
2021/01/07 00:21:36;;;;;;;44.85;23.32;;;;;;;2.18;100.00;99979.70;1724483;82;20982;-53
2021/01/07 00:24:06;;;;;;;42.45;22.27;;;;;;;2.17;100.00;99965.97;1724379;82;21079;-55
2021/01/07 00:26:35;;;;;;;42.15;20.90;;;;;;;2.16;100.00;99968.20;1725310;82;21234;-53
2021/01/07 00:29:04;;;;;;;56.02;23.85;;;;;;;2.19;100.00;99984.14;1721542;82;21594;-54
2021/01/07 00:31:32;;;;;;;48.95;23.80;;;;;;;2.19;100.00;99986.80;1731843;82;21038;-53
2021/01/07 00:34:00;;;;;;;54.70;26.25;;;;;;;2.18;100.00;99985.02;1725006;82;21164;-55
2021/01/07 00:36:29;;;;;;;51.65;23.55;;;;;;;2.17;100.00;99980.60;1724593;82;21530;-55
2021/01/07 00:38:57;;;;;;;46.60;24.07;;;;;;;2.19;100.00;99978.83;1720755;82;21356;-55
2021/01/07 00:41:25;;;;;;;59.50;24.43;;;;;;;2.22;100.00;99978.77;1720085;82;21567;-54
2021/01/07 00:43:53;;;;;;;46.35;22.48;;;;;;;2.23;100.00;99960.56;1722775;82;21188;-54
2021/01/07 00:46:21;;;;;;;48.52;21.97;;;;;;;2.25;100.00;99973.42;1724878;82;21152;-54
2021/01/07 00:48:49;;;;;;;50.88;22.05;;;;;;;2.23;100.00;99975.20;1720964;82;20997;-55
2021/01/07 00:51:18;;;;;;;46.98;21.15;;;;;;;2.23;100.00;99983.18;1720169;82;21136;-54
2021/01/07 00:53:47;;;;;;;55.35;23.12;;;;;;;2.26;100.00;99983.16;1724754;82;20978;-54
2021/01/07 00:56:16;;;;;;;55.73;25.02;;;;;;;2.27;100.00;99987.57;1726628;82;21017;-54
2021/01/07 00:58:44;;;;;;;52.88;23.62;;;;;;;2.27;100.00;99979.59;1721920;82;21002;-55
2021/01/07 01:01:12;;;;;;;51.28;25.00;;;;;;;2.29;100.00;99969.79;1726040;82;22116;-56
2021/01/07 01:03:41;;;;;;;60.85;28.90;;;;;;;2.30;100.00;99959.60;1723913;82;21419;-56
2021/01/07 01:06:09;;;;;;;51.35;26.77;;;;;;;2.31;100.00;99961.36;1729670;82;21580;-56
2021/01/07 01:08:37;;;;;;;48.08;26.10;;;;;;;2.32;100.00;99956.45;1719650;82;21100;-56
2021/01/07 01:11:05;;;;;;;50.90;26.12;;;;;;;2.32;100.00;99961.78;1722456;82;21148;-57
2021/01/07 01:13:33;;;;;;;52.83;26.93;;;;;;;2.33;100.00;99958.21;1723120;82;21112;-57
2021/01/07 01:16:03;;;;;;;56.37;29.57;;;;;;;2.34;100.00;99959.97;1725588;82;21577;-56
2021/01/07 01:18:31;;;;;;;58.78;28.30;;;;;;;2.35;100.00;99956.44;1722507;82;20982;-54
2021/01/07 01:20:59;;;;;;;56.70;29.60;;;;;;;2.36;100.00;99943.55;1721042;82;20993;-53
2021/01/07 01:23:27;;;;;;;51.15;27.00;;;;;;;2.36;100.00;99943.55;1722043;82;21159;-51
2021/01/07 01:25:55;;;;;;;60.10;30.75;;;;;;;2.36;100.00;99950.20;1721862;82;21010;-53
2021/01/07 01:28:23;;;;;;;59.93;30.43;;;;;;;2.36;100.00;99947.54;1721875;82;21202;-52
2021/01/07 01:30:51;;;;;;;61.05;28.52;;;;;;;2.40;100.00;99931.97;1721459;82;21241;-52
2021/01/07 01:33:19;;;;;;;52.88;27.82;;;;;;;2.45;100.00;99936.78;1722475;82;21565;-51
2021/01/07 01:35:47;;;;;;;49.85;27.37;;;;;;;2.46;100.00;99934.53;1721890;82;21112;-51
2021/01/07 01:38:15;;;;;;;49.13;26.48;;;;;;;2.47;100.00;99924.31;1725886;82;21128;-51
2021/01/07 01:40:43;;;;;;;45.35;26.65;;;;;;;2.47;100.00;99922.98;1724641;80;21374;-51
2021/01/07 01:43:11;;;;;;;46.65;25.82;;;;;;;2.47;100.00;99913.66;1727052;82;21025;-52
2021/01/07 01:45:39;;;;;;;44.83;25.90;;;;;;;2.50;100.00;99908.27;1723546;82;21125;-52
2021/01/07 01:48:08;;;;;;;46.45;26.17;;;;;;;2.50;100.00;99909.61;1723460;82;21019;-54
2021/01/07 01:50:37;;;;;;;41.25;23.12;;;;;;;2.51;100.00;99910.52;1696784;82;20931;-53
2021/01/07 01:53:05;;;;;;;41.83;23.95;;;;;;;2.53;100.00;99906.91;1723087;82;22189;-53
2021/01/07 01:55:33;;;;;;;44.70;24.95;;;;;;;2.53;100.00;99908.70;1721073;82;21036;-56
2021/01/07 01:58:02;;;;;;;44.13;24.43;;;;;;;2.54;100.00;99904.67;1721897;82;21009;-56
2021/01/07 02:00:30;;;;;;;42.45;25.32;;;;;;;2.53;100.00;99897.59;1722342;82;21122;-56
2021/01/07 02:02:58;;;;;;;41.53;24.23;;;;;;;2.52;100.00;99887.86;1725452;82;20992;-55
2021/01/07 02:05:26;;;;;;;38.23;23.47;;;;;;;2.55;100.00;99889.58;1721950;82;22192;-53
2021/01/07 02:07:54;;;;;;;38.48;23.55;;;;;;;2.55;100.00;99878.93;1721466;82;21160;-53
2021/01/07 02:10:23;;;;;;;42.03;25.12;;;;;;;2.56;100.00;99872.27;1728742;82;21010;-53
2021/01/07 02:12:51;;;;;;;38.65;23.27;;;;;;;2.58;100.00;99874.45;1693988;82;21144;-53
2021/01/07 02:15:19;;;;;;;41.65;24.32;;;;;;;2.59;100.00;99862.89;1720053;82;21144;-52
2021/01/07 02:17:47;;;;;;;37.73;22.22;;;;;;;2.60;100.00;99861.98;1720338;82;21852;-53
2021/01/07 02:20:21;;;;;;;33.55;20.32;;;;;;;2.59;100.00;99857.56;1721314;82;21153;-54
2021/01/07 02:22:55;;;;;;;41.75;21.73;;;;;;;2.58;100.00;99854.48;1695196;82;21232;-55
2021/01/07 02:25:25;;;;;;;41.95;20.75;;;;;;;2.58;100.00;99853.15;1720740;82;21005;-54
2021/01/07 02:27:53;;;;;;;38.05;20.48;;;;;;;2.57;100.00;99844.74;1724487;82;21030;-53
2021/01/07 02:30:22;;;;;;;34.30;20.00;;;;;;;2.58;100.00;99841.17;1720052;82;21380;-53
2021/01/07 02:32:49;;;;;;;43.05;23.55;;;;;;;2.58;100.00;99837.17;1721722;82;21163;-52
2021/01/07 02:35:18;;;;;;;43.10;22.40;;;;;;;2.54;100.00;99835.46;1721099;82;21144;-52
2021/01/07 02:37:46;;;;;;;39.78;20.62;;;;;;;2.53;100.00;99833.70;1721344;82;21161;-51
2021/01/07 02:40:15;;;;;;;40.20;20.02;;;;;;;2.52;100.00;99825.30;1722490;82;21041;-52
2021/01/07 02:42:43;;;;;;;42.88;22.75;;;;;;;2.51;100.00;99818.69;1722097;82;21365;-53
2021/01/07 02:45:11;;;;;;;41.77;22.82;;;;;;;2.48;100.00;99822.26;1727538;80;21520;-53
2021/01/07 02:47:39;;;;;;;38.10;21.95;;;;;;;2.46;100.00;99824.08;1722839;80;21058;-54
2021/01/07 02:50:08;;;;;;;42.70;23.30;;;;;;;2.47;100.00;99820.50;1722073;80;21117;-52
2021/01/07 02:52:36;;;;;;;48.65;23.12;;;;;;;2.47;100.00;99817.84;1721642;82;21208;-54
2021/01/07 02:55:06;;;;;;;55.75;24.23;;;;;;;2.46;100.00;99805.45;1730598;82;21865;-54
2021/01/07 02:57:33;;;;;;;51.10;24.30;;;;;;;2.51;100.00;99807.58;1725587;82;21041;-53
2021/01/07 03:00:01;;;;;;;48.85;25.50;;;;;;;2.52;100.00;99810.66;1720603;82;21176;-53
2021/01/07 03:02:29;;;;;;;55.28;26.68;;;;;;;2.51;100.00;99805.38;1725868;82;21137;-53
2021/01/07 03:04:57;;;;;;;64.45;27.58;;;;;;;2.49;100.00;99796.52;1721133;82;20968;-54
2021/01/07 03:07:25;;;;;;;78.20;29.92;;;;;;;2.48;100.00;99787.66;1720652;80;21366;-53
2021/01/07 03:09:53;;;;;;;55.35;26.20;;;;;;;2.45;100.00;99790.39;1712555;80;21188;-53
2021/01/07 03:12:21;;;;;;;105.58;36.80;;;;;;;2.43;100.00;99792.17;1713552;81;21058;-53
2021/01/07 03:14:49;;;;;;;102.42;34.20;;;;;;;2.44;100.00;99791.72;1708881;82;21014;-53
2021/01/07 03:17:17;;;;;;;63.08;28.10;;;;;;;2.43;100.00;99788.19;1708493;82;21145;-52
2021/01/07 03:19:45;;;;;;;43.02;21.23;;;;;;;2.46;100.00;99786.81;1709444;82;21193;-52
2021/01/07 03:22:14;;;;;;;40.30;22.67;;;;;;;2.45;100.00;99771.76;1707712;82;21149;-53
2021/01/07 03:24:42;;;;;;;58.35;24.85;;;;;;;2.43;100.00;99773.55;1709537;82;21152;-53
2021/01/07 03:27:10;;;;;;;61.80;25.70;;;;;;;2.45;100.00;99769.09;1708828;82;21487;-52
2021/01/07 03:29:38;;;;;;;69.35;26.42;;;;;;;2.43;100.00;99768.22;1711788;82;20967;-53
2021/01/07 03:32:06;;;;;;;55.20;24.15;;;;;;;2.42;100.00;99761.15;1710650;82;22292;-55
2021/01/07 03:34:34;;;;;;;54.83;23.77;;;;;;;2.42;100.00;99750.50;1710500;82;21126;-57
2021/01/07 03:37:02;;;;;;;76.92;27.42;;;;;;;2.42;100.00;99753.16;1711627;82;21050;-55
2021/01/07 03:39:31;;;;;;;57.75;25.15;;;;;;;2.44;100.00;99745.14;1709512;82;21022;-57
2021/01/07 03:41:59;;;;;;;76.77;28.70;;;;;;;2.47;100.00;99748.64;1713905;82;21034;-56
2021/01/07 03:44:27;;;;;;;76.40;29.67;;;;;;;2.48;100.00;99750.39;1709486;82;22279;-56
2021/01/07 03:46:55;;;;;;;73.12;29.37;;;;;;;2.48;100.00;99745.06;1715974;82;21003;-56
2021/01/07 03:49:23;;;;;;;88.78;32.00;;;;;;;2.46;100.00;99742.90;1708477;82;21651;-56
2021/01/07 03:51:51;;;;;;;70.03;29.50;;;;;;;2.46;100.00;99744.23;1707598;82;21661;-57
2021/01/07 03:54:19;;;;;;;61.18;27.93;;;;;;;2.44;100.00;99738.03;1706334;82;21146;-56
2021/01/07 03:56:47;;;;;;;57.48;27.27;;;;;;;2.43;100.00;99730.96;1710581;82;22176;-56
2021/01/07 03:59:15;;;;;;;72.87;28.80;;;;;;;2.40;100.00;99723.05;1715898;82;21125;-56
2021/01/07 04:01:43;;;;;;;76.25;32.23;;;;;;;2.40;100.00;99725.72;1708426;82;21602;-56
2021/01/07 04:04:12;;;;;;;72.78;29.98;;;;;;;2.39;100.00;99720.39;1707405;82;21149;-50
2021/01/07 04:06:40;;;;;;;95.12;35.68;;;;;;;2.39;100.00;99722.60;1710240;82;21132;-50
2021/01/07 04:09:08;;;;;;;108.65;36.40;;;;;;;2.39;100.00;99725.27;1722667;82;21372;-49
2021/01/07 04:11:37;;;;;;;90.00;31.35;;;;;;;2.40;100.00;99725.72;1720614;82;21041;-48
2021/01/07 04:14:04;;;;;;;59.27;28.05;;;;;;;2.37;100.00;99712.45;1720075;82;21545;-49
2021/01/07 04:16:33;;;;;;;84.85;29.07;;;;;;;2.34;100.00;99715.15;1720612;82;21147;-49
2021/01/07 04:19:01;;;;;;;83.47;28.57;;;;;;;2.33;100.00;99710.73;1696641;82;21723;-49
2021/01/07 04:21:29;;;;;;;81.78;29.60;;;;;;;2.30;100.00;99708.15;1722374;82;21400;-50
2021/01/07 04:23:57;;;;;;;91.28;30.57;;;;;;;2.29;100.00;99715.25;1723550;82;21222;-51
2021/01/07 04:26:25;;;;;;;115.65;36.23;;;;;;;2.30;100.00;99710.81;1721479;82;21665;-50
2021/01/07 04:28:53;;;;;;;90.25;28.05;;;;;;;2.29;100.00;99710.36;1722502;82;21780;-49
2021/01/07 04:31:21;;;;;;;65.12;26.23;;;;;;;2.29;100.00;99707.27;1723441;82;21097;-50
2021/01/07 04:33:49;;;;;;;58.85;24.98;;;;;;;2.32;100.00;99706.33;1719680;82;21385;-50
2021/01/07 04:36:17;;;;;;;47.58;22.95;;;;;;;2.31;100.00;99696.59;1721904;82;21565;-48
2021/01/07 04:38:45;;;;;;;49.25;21.35;;;;;;;2.31;100.00;99701.91;1726226;82;21145;-49
2021/01/07 04:41:13;;;;;;;100.30;33.85;;;;;;;2.32;100.00;99702.34;1720634;82;21168;-49
2021/01/07 04:43:41;;;;;;;94.85;31.87;;;;;;;2.33;100.00;99710.73;1722906;82;21585;-48
2021/01/07 04:46:09;;;;;;;112.12;37.30;;;;;;;2.31;100.00;99708.11;1721434;82;21393;-49
2021/01/07 04:48:37;;;;;;;99.87;35.40;;;;;;;2.31;100.00;99715.22;1694667;82;21294;-51
2021/01/07 04:51:05;;;;;;;75.42;29.70;;;;;;;2.32;100.00;99707.66;1725002;82;21173;-49
2021/01/07 04:53:34;;;;;;;69.45;26.48;;;;;;;2.31;100.00;99708.11;1720981;82;21022;-50
2021/01/07 04:56:02;;;;;;;72.17;28.27;;;;;;;2.33;100.00;99713.40;1720636;82;21101;-50
2021/01/07 04:58:30;;;;;;;84.87;29.35;;;;;;;2.36;100.00;99714.23;1732479;82;21183;-49
2021/01/07 05:00:59;;;;;;;65.75;26.02;;;;;;;2.37;100.00;99709.78;1721642;82;21161;-50
2021/01/07 05:03:31;;;;;;;79.97;28.50;;;;;;;2.39;100.00;99699.98;1722503;82;20983;-50
2021/01/07 05:06:08;;;;;;;88.80;31.12;;;;;;;2.46;100.00;99698.11;1862052;73;22858;-49
2021/01/07 05:08:36;;;;;;;93.33;29.27;;;;;;;2.42;100.00;99697.27;1819847;75;21007;-49
2021/01/07 05:11:04;;;;;;;76.12;28.50;;;;;;;2.44;100.00;99690.13;1822559;76;21590;-49
2021/01/07 05:13:32;;;;;;;73.78;26.57;;;;;;;2.44;100.00;99687.47;1815522;75;20984;-50
2021/01/07 05:16:00;;;;;;;59.60;23.75;;;;;;;2.44;100.00;99690.13;1822498;75;21452;-51
2021/01/07 05:18:27;;;;;;;58.68;24.32;;;;;;;2.42;100.00;99678.64;1821017;75;21000;-54
2021/01/07 05:20:57;;;;;;;52.73;23.85;;;;;;;2.42;100.00;99680.44;1820563;76;21075;-50
2021/01/07 05:23:26;;;;;;;42.73;19.82;;;;;;;2.40;100.00;99671.58;1791484;75;21370;-50
2021/01/07 05:25:58;;;;;;;36.28;18.27;;;;;;;2.40;100.00;99665.83;1818025;76;21046;-51
2021/01/07 05:28:26;;;;;;;31.75;16.70;;;;;;;2.39;100.00;99662.72;1821374;75;21673;-51
2021/01/07 05:30:54;;;;;;;31.97;19.32;;;;;;;2.39;100.00;99660.06;1814866;74;21150;-51
2021/01/07 05:33:23;;;;;;;30.62;17.25;;;;;;;2.39;100.00;99656.07;1777208;76;21544;-50
2021/01/07 05:35:51;;;;;;;31.50;17.55;;;;;;;2.43;100.00;99652.91;1830029;75;21363;-51
2021/01/07 05:38:18;;;;;;;34.83;19.05;;;;;;;2.42;100.00;99646.71;1819533;75;20992;-50
2021/01/07 05:40:49;;;;;;;32.48;17.40;;;;;;;2.41;100.00;99647.62;1822527;75;21145;-49
2021/01/07 05:43:17;;;;;;;39.05;20.05;;;;;;;2.42;100.00;99634.73;1820346;76;20976;-49
2021/01/07 05:45:45;;;;;;;34.50;19.52;;;;;;;2.41;100.00;99643.63;1819891;75;21501;-49
2021/01/07 05:48:13;;;;;;;33.10;19.23;;;;;;;2.41;100.00;99639.64;1820996;76;21293;-50
2021/01/07 05:50:41;;;;;;;36.77;19.60;;;;;;;2.43;100.00;99631.16;1820101;75;21484;-49
2021/01/07 05:53:09;;;;;;;34.38;19.45;;;;;;;2.43;100.00;99628.50;1822026;75;20948;-50
2021/01/07 05:55:37;;;;;;;31.80;17.60;;;;;;;2.43;100.00;99635.16;1819591;75;21583;-48
2021/01/07 05:58:05;;;;;;;37.23;19.98;;;;;;;2.43;100.00;99637.81;1821159;75;21082;-49
2021/01/07 06:00:34;;;;;;;37.15;18.82;;;;;;;2.42;100.00;99644.05;1788232;76;22245;-49
2021/01/07 06:03:03;;;;;;;48.52;23.10;;;;;;;2.44;100.00;99642.23;1822877;75;21579;-49
2021/01/07 06:05:31;;;;;;;59.15;25.08;;;;;;;2.44;100.00;99642.23;1832306;75;21235;-50
2021/01/07 06:07:59;;;;;;;60.23;24.95;;;;;;;2.44;100.00;99640.89;1845270;75;20983;-50
2021/01/07 06:10:27;;;;;;;60.67;26.95;;;;;;;2.43;100.00;99640.48;1840130;75;20960;-50
2021/01/07 06:12:56;;;;;;;57.62;24.98;;;;;;;2.46;100.00;99639.10;1847314;75;22268;-52
2021/01/07 06:15:24;;;;;;;73.80;30.52;;;;;;;2.48;100.00;99637.73;1840646;75;21133;-49
2021/01/07 06:17:52;;;;;;;59.25;25.02;;;;;;;2.50;100.00;99643.43;1814038;75;21106;-50
2021/01/07 06:20:21;;;;;;;63.98;27.75;;;;;;;2.50;100.00;99635.45;1818923;75;21121;-50
2021/01/07 06:22:53;;;;;;;56.90;26.12;;;;;;;2.52;100.00;99639.44;1838943;75;21526;-50
2021/01/07 06:25:22;;;;;;;63.73;26.55;;;;;;;2.53;100.00;99638.06;1842852;75;21358;-50
2021/01/07 06:27:51;;;;;;;62.20;26.77;;;;;;;2.54;100.00;99633.16;1842982;75;21157;-50
2021/01/07 06:30:24;;;;;;;76.30;32.58;;;;;;;2.54;100.00;99641.14;1841691;75;21058;-52
2021/01/07 06:33:04;;;;;;;75.37;30.68;;;;;;;2.55;100.00;99638.90;1846203;75;20971;-53
2021/01/07 06:35:40;;;;;;;84.52;31.80;;;;;;;2.54;100.00;99635.82;1838174;76;21007;-51
2021/01/07 06:38:10;;;;;;;109.03;36.50;;;;;;;2.54;100.00;99633.61;1844282;75;21378;-47
2021/01/07 06:40:42;;;;;;;120.65;43.40;;;;;;;2.53;100.00;99644.72;1844228;75;21094;-49
2021/01/07 06:43:16;;;;;;;144.50;47.35;;;;;;;2.54;100.00;99650.92;1841138;75;20998;-50
2021/01/07 06:45:52;;;;;;;150.70;47.70;;;;;;;2.58;100.00;99648.17;1848829;74;21644;-49
2021/01/07 06:48:28;;;;;;;137.47;47.20;;;;;;;2.59;100.00;99643.72;1845196;75;20967;-51
2021/01/07 06:50:55;;;;;;;127.82;44.53;;;;;;;2.59;100.00;99641.93;1841547;75;21201;-49
2021/01/07 06:53:23;;;;;;;130.52;46.05;;;;;;;2.60;100.00;99638.36;1840017;75;21035;-50
2021/01/07 06:56:14;;;;;;;106.25;38.63;;;;;;;2.60;100.00;99634.82;1842414;75;21026;-49
2021/01/07 06:58:43;;;;;;;121.82;42.43;;;;;;;2.63;100.00;99631.66;1841839;75;21134;-49
2021/01/07 07:01:14;;;;;;;111.00;38.40;;;;;;;2.65;100.00;99636.06;1842334;75;21491;-49
2021/01/07 07:03:53;;;;;;;109.27;39.08;;;;;;;2.62;100.00;99625.91;1845568;75;22341;-51
2021/01/07 07:06:26;;;;;;;96.10;38.17;;;;;;;2.65;100.00;99625.41;1830690;75;21149;-50
2021/01/07 07:08:54;;;;;;;76.65;30.62;;;;;;;2.63;100.00;99627.66;1823014;75;20976;-50
2021/01/07 07:11:33;;;;;;;69.42;28.90;;;;;;;2.64;100.00;99623.21;1825138;76;20980;-50
2021/01/07 07:14:07;;;;;;;71.67;31.10;;;;;;;2.65;100.00;99621.42;1823769;75;21527;-50
2021/01/07 07:16:36;;;;;;;128.15;43.13;;;;;;;2.67;100.00;99635.59;1824033;75;21483;-49
2021/01/07 07:19:06;;;;;;;82.95;32.35;;;;;;;2.69;100.00;99625.78;1832169;75;21010;-51
2021/01/07 07:21:35;;;;;;;66.12;27.60;;;;;;;2.68;100.00;99617.38;1823754;76;21559;-52
2021/01/07 07:24:08;;;;;;;66.02;26.40;;;;;;;2.70;100.00;99615.55;1826623;75;21083;-51
2021/01/07 07:26:39;;;;;;;56.00;25.60;;;;;;;2.70;100.00;99615.55;1826185;75;21099;-51
2021/01/07 07:29:12;;;;;;;115.00;36.73;;;;;;;2.71;100.00;99615.97;1823210;75;21185;-51
2021/01/07 07:31:42;;;;;;;72.70;29.10;;;;;;;2.72;100.00;99604.44;1829267;75;20983;-50
2021/01/07 07:34:10;;;;;;;57.80;25.40;;;;;;;2.73;100.00;99602.19;1826028;75;20972;-49
2021/01/07 07:36:38;;;;;;;65.57;26.77;;;;;;;2.73;100.00;99595.53;1824299;75;21111;-51
2021/01/07 07:39:06;;;;;;;50.75;23.47;;;;;;;2.73;100.00;99595.53;1822522;75;20964;-51
2021/01/07 07:41:45;;;;;;;43.10;22.35;;;;;;;2.73;100.00;99588.87;1824185;76;21369;-52
2021/01/07 07:44:14;;;;;;;69.37;26.82;;;;;;;2.74;100.00;99581.30;1827992;75;21561;-51
2021/01/07 07:46:43;;;;;;;57.67;23.12;;;;;;;2.77;100.00;99581.22;1828581;75;21554;-55
2021/01/07 07:49:12;;;;;;;59.80;23.55;;;;;;;2.76;100.00;99571.48;1824339;76;21600;-51
2021/01/07 07:51:41;;;;;;;40.12;18.92;;;;;;;2.78;100.00;99572.34;1824647;76;21103;-52
2021/01/07 07:54:11;;;;;;;38.78;19.55;;;;;;;2.79;100.00;99558.12;1826979;75;22261;-53
2021/01/07 07:56:39;;;;;;;35.58;20.17;;;;;;;2.81;100.00;99556.28;1826499;75;21122;-50
2021/01/07 07:59:11;;;;;;;28.92;16.95;;;;;;;2.81;100.00;99554.95;1821696;75;20993;-52
2021/01/07 08:01:48;;;;;;;40.70;20.17;;;;;;;2.87;100.00;99551.69;1857907;74;22613;-50
2021/01/07 08:04:19;;;;;;;39.45;19.73;;;;;;;2.84;100.00;99546.91;1866093;74;20993;-51
2021/01/07 08:06:47;;;;;;;36.38;19.60;;;;;;;2.83;100.00;99541.17;1841628;75;22216;-56
2021/01/07 08:09:18;;;;;;;32.03;18.20;;;;;;;2.83;100.00;99534.52;1845553;75;21012;-52
2021/01/07 08:11:51;;;;;;;28.92;17.27;;;;;;;2.84;100.00;99533.14;1836747;75;21017;-50
2021/01/07 08:14:24;;;;;;;29.45;16.42;;;;;;;2.83;100.00;99536.72;1834692;75;20962;-52
2021/01/07 08:16:57;;;;;;;31.93;18.70;;;;;;;2.83;100.00;99530.52;1836374;75;21050;-50
2021/01/07 08:19:33;;;;;;;41.20;20.05;;;;;;;2.87;100.00;99529.52;1836084;75;21237;-52
2021/01/07 08:22:02;;;;;;;52.45;21.75;;;;;;;2.89;100.00;99525.05;1835348;75;21005;-51
2021/01/07 08:24:30;;;;;;;40.73;19.55;;;;;;;2.89;100.00;99525.92;1833593;75;21005;-50
2021/01/07 08:27:11;;;;;;;56.58;21.12;;;;;;;2.89;100.00;99518.39;1836269;75;21363;-50
2021/01/07 08:29:40;;;;;;;38.42;17.85;;;;;;;2.89;100.00;99522.39;1833681;75;21127;-53
2021/01/07 08:32:10;;;;;;;29.27;17.02;;;;;;;2.88;100.00;99520.64;1837413;75;21362;-51
2021/01/07 08:34:38;;;;;;;40.88;17.77;;;;;;;2.89;100.00;99506.41;1818194;75;21128;-53
2021/01/07 08:37:10;;;;;;;50.48;22.07;;;;;;;2.90;100.00;99505.48;1848681;75;21660;-48
2021/01/07 08:39:39;;;;;;;37.38;20.08;;;;;;;2.91;100.00;99507.23;1837220;75;21064;-56
2021/01/07 08:42:07;;;;;;;57.85;24.45;;;;;;;2.92;100.00;99503.66;1843072;75;21148;-52
2021/01/07 08:44:36;;;;;;;50.28;22.40;;;;;;;2.92;100.00;99498.33;1849567;75;21379;-53
2021/01/07 08:47:07;;;;;;;68.35;26.00;;;;;;;2.94;100.00;99501.85;1849065;75;21028;-53
2021/01/07 08:49:35;;;;;;;92.35;29.90;;;;;;;2.95;100.00;99492.94;1804120;76;21183;-55
2021/01/07 08:52:03;;;;;;;48.90;20.62;;;;;;;2.98;100.00;99498.17;1848135;75;21135;-54
2021/01/07 08:54:31;;;;;;;48.85;22.85;;;;;;;3.00;100.00;99485.72;1843357;75;21124;-53
2021/01/07 08:57:03;;;;;;;46.60;20.25;;;;;;;3.01;100.00;99479.48;1845319;75;21627;-52
2021/01/07 08:59:32;;;;;;;53.90;23.75;;;;;;;3.02;100.00;99481.22;1843449;75;21190;-54
2021/01/07 09:02:12;;;;;;;70.70;25.35;;;;;;;3.04;100.00;99479.41;1847901;75;21199;-55
2021/01/07 09:04:43;;;;;;;62.98;25.30;;;;;;;3.05;100.00;99467.84;1858128;75;21143;-55
2021/01/07 09:07:19;;;;;;;58.65;24.82;;;;;;;3.06;100.00;99466.92;1841200;75;20993;-54
2021/01/07 09:09:55;;;;;;;67.82;26.42;;;;;;;3.08;100.00;99465.55;1838568;75;21299;-55
2021/01/07 09:12:28;;;;;;;116.30;36.63;;;;;;;3.08;100.00;99459.75;1845888;75;21193;-56
2021/01/07 09:15:15;;;;;;;90.55;29.45;;;;;;;3.08;100.00;99449.09;1837124;75;21111;-55
2021/01/07 09:20:33;;;;;;;81.30;29.20;;;;;;;3.19;100.00;99437.30;1860968;75;23139;-55
2021/01/07 09:23:05;;;;;;;61.35;23.15;;;;;;;3.13;100.00;99427.67;1782655;77;21548;-54
2021/01/07 09:25:34;;;;;;;49.23;21.15;;;;;;;3.14;100.00;99423.66;1820481;77;21146;-54
2021/01/07 09:28:02;;;;;;;48.23;21.25;;;;;;;3.13;100.00;99411.23;1832244;77;21040;-56
2021/01/07 09:30:30;;;;;;;59.23;23.62;;;;;;;3.14;100.00;99410.34;1826166;77;21339;-57
2021/01/07 09:32:58;;;;;;;57.05;25.20;;;;;;;3.14;100.00;99402.78;1816250;77;20997;-53
2021/01/07 09:35:26;;;;;;;73.55;26.93;;;;;;;3.17;100.00;99397.84;1814437;77;21641;-55
2021/01/07 09:37:56;;;;;;;52.58;23.30;;;;;;;3.18;100.00;99390.27;1820155;77;22068;-55
2021/01/07 09:40:24;;;;;;;46.90;20.90;;;;;;;3.19;100.00;99385.34;1821104;77;20998;-52
2021/01/07 09:42:52;;;;;;;37.80;19.32;;;;;;;3.20;100.00;99383.13;1785846;79;21669;-52
2021/01/07 09:45:20;;;;;;;43.68;20.50;;;;;;;3.20;100.00;99376.00;1777028;79;21141;-51
2021/01/07 09:47:48;;;;;;;52.03;22.95;;;;;;;3.19;100.00;99371.56;1784401;79;21582;-51
2021/01/07 09:50:19;;;;;;;54.27;22.50;;;;;;;3.24;100.00;99365.66;1780594;79;21360;-53
2021/01/07 09:52:46;;;;;;;56.28;21.82;;;;;;;3.28;100.00;99362.45;1783266;79;20997;-52
2021/01/07 09:55:14;;;;;;;41.55;17.00;;;;;;;3.28;100.00;99351.80;1780470;78;21070;-53
2021/01/07 09:57:48;;;;;;;36.53;18.80;;;;;;;3.28;100.00;99343.80;1777632;78;21159;-55
2021/01/07 10:00:14;;;;;;;36.33;17.07;;;;;;;3.29;100.00;99329.56;1775584;78;21193;-55
2021/01/07 10:02:42;;;;;;;33.15;17.23;;;;;;;3.30;100.00;99326.88;1789722;78;21208;-54
2021/01/07 10:05:12;;;;;;;33.35;17.92;;;;;;;3.33;100.00;99319.23;1779453;78;21101;-54
2021/01/07 10:07:40;;;;;;;26.85;15.65;;;;;;;3.34;100.00;99328.98;1771899;78;21177;-56
2021/01/07 10:10:09;;;;;;;26.45;15.10;;;;;;;3.40;100.00;99332.80;1773927;78;21082;-55
2021/01/07 10:12:37;;;;;;;32.35;16.45;;;;;;;3.40;100.00;99325.67;1778080;78;21157;-52
2021/01/07 10:15:08;;;;;;;34.13;16.77;;;;;;;3.42;100.00;99312.33;1785974;78;21411;-55
2021/01/07 10:17:36;;;;;;;25.48;13.75;;;;;;;3.42;100.00;99304.33;1772171;78;20990;-55
2021/01/07 10:20:07;;;;;;;26.00;12.80;;;;;;;3.44;100.00;99297.16;1763884;78;21160;-53
2021/01/07 10:22:37;;;;;;;20.92;12.68;;;;;;;3.47;100.00;99302.41;1769961;78;21564;-54
2021/01/07 10:25:06;;;;;;;20.57;12.60;;;;;;;3.51;100.00;99296.05;1774413;78;20975;-55
2021/01/07 10:27:34;;;;;;;17.32;10.72;;;;;;;3.55;100.00;99287.05;1773970;80;21341;-56
2021/01/07 10:30:03;;;;;;;18.17;11.00;;;;;;;3.55;100.00;99288.38;1772014;78;21142;-53
2021/01/07 10:32:31;;;;;;;16.97;10.13;;;;;;;3.55;100.00;99276.39;1771012;78;21054;-54
2021/01/07 10:34:59;;;;;;;18.50;11.85;;;;;;;3.56;100.00;99267.46;1772229;78;21105;-54
2021/01/07 10:37:27;;;;;;;16.50;10.48;;;;;;;3.58;100.00;99258.98;1768225;78;21097;-54
2021/01/07 10:39:55;;;;;;;15.20;10.32;;;;;;;3.60;100.00;99258.46;1768500;78;21190;-53
2021/01/07 10:42:23;;;;;;;15.25;9.78;;;;;;;3.63;100.00;99253.05;1768797;78;21051;-54
2021/01/07 10:44:52;;;;;;;13.93;8.98;;;;;;;3.66;100.00;99254.73;1785371;78;22037;-55
2021/01/07 10:47:21;;;;;;;14.63;8.78;;;;;;;3.68;100.00;99245.78;1768723;78;20990;-54
2021/01/07 10:49:49;;;;;;;12.00;8.50;;;;;;;3.68;100.00;99237.79;1773684;78;21057;-55
2021/01/07 10:52:28;;;;;;;13.88;7.90;;;;;;;3.73;100.00;99234.08;1774469;79;22128;-53
2021/01/07 10:55:12;;;;;;;12.13;8.38;;;;;;;3.75;100.00;99230.92;1727244;78;21037;-53
2021/01/07 10:58:07;;;;;;;12.07;8.35;;;;;;;3.75;100.00;99224.27;1768030;78;21534;-53
2021/01/07 11:00:50;;;;;;;11.55;8.80;;;;;;;3.77;100.00;99214.41;1764232;78;21253;-54
2021/01/07 11:03:54;;;;;;;17.10;9.58;;;;;;;3.82;100.00;99209.80;1770323;78;21082;-54
2021/01/07 11:06:25;;;;;;;12.55;9.15;;;;;;;3.81;100.00;99204.06;1766010;78;21381;-54
2021/01/07 11:09:08;;;;;;;13.30;8.45;;;;;;;3.81;100.00;99202.73;1783152;78;20979;-54
2021/01/07 11:11:40;;;;;;;16.70;9.38;;;;;;;3.84;100.00;99194.64;1779659;78;21340;-54
2021/01/07 11:14:16;;;;;;;13.08;8.70;;;;;;;3.83;100.00;99191.08;1774963;80;21133;-55
2021/01/07 11:16:50;;;;;;;15.13;9.15;;;;;;;3.84;100.00;99178.18;1771933;79;20975;-53
2021/01/07 11:19:23;;;;;;;14.73;9.18;;;;;;;3.89;100.00;99177.57;1763139;78;21386;-54
2021/01/07 11:22:23;;;;;;;12.43;7.95;;;;;;;3.92;100.00;99176.58;1778179;79;21150;-52
2021/01/07 11:24:50;;;;;;;15.60;10.18;;;;;;;3.94;100.00;99168.05;1774598;78;21151;-53
2021/01/07 11:27:18;;;;;;;14.60;10.13;;;;;;;3.95;100.00;99149.82;1723207;80;21550;-53
2021/01/07 11:29:46;;;;;;;15.23;8.85;;;;;;;3.98;100.00;99148.37;1710092;81;21089;-55
2021/01/07 11:32:15;;;;;;;16.90;10.13;;;;;;;4.03;100.00;99150.42;1734961;81;22361;-54
2021/01/07 11:34:45;;;;;;;16.00;9.93;;;;;;;4.03;100.00;99142.41;1730236;81;21577;-54